createdAt,value
2022-09-05T00:00:12.403Z,7.88
2022-09-05T00:02:50.027Z,11.43
2022-09-05T00:05:31.833Z,10.55
2022-09-05T00:08:14.640Z,15.00
2022-09-05T00:11:41.125Z,9.30
2022-09-05T00:14:07.604Z,10.93
2022-09-05T00:16:59.066Z,8.38
2022-09-05T00:24:17.619Z,9.55
2022-09-05T00:24:37.404Z,9.48
2022-09-05T00:26:25.041Z,10.95
2022-09-05T00:29:11.482Z,8.27
2022-09-05T00:31:56.786Z,14.73
2022-09-05T00:34:48.116Z,17.13
2022-09-05T00:37:27.755Z,12.85
2022-09-05T00:40:18.456Z,14.43
2022-09-05T00:42:49.572Z,15.73
2022-09-05T00:45:25.290Z,11.18
2022-09-05T00:48:03.123Z,12.25
2022-09-05T00:50:42.116Z,11.02
2022-09-05T00:53:21.477Z,13.00
2022-09-05T00:56:18.124Z,15.13
2022-09-05T00:59:11.370Z,9.30
2022-09-05T01:01:48.059Z,11.38
2022-09-05T01:05:06.555Z,10.50
2022-09-05T01:07:48.140Z,13.25
2022-09-05T01:10:31.294Z,11.18
2022-09-05T01:13:40.477Z,8.18
2022-09-05T01:16:22.957Z,9.55
2022-09-05T01:19:15.861Z,10.90
2022-09-05T01:21:59.614Z,10.82
2022-09-05T01:24:57.238Z,11.32
2022-09-05T01:28:59.952Z,14.98
2022-09-05T01:31:07.054Z,9.38
2022-09-05T01:33:55.289Z,16.23
2022-09-05T01:36:49.492Z,14.23
2022-09-05T01:40:14.549Z,17.00
2022-09-05T01:42:39.230Z,9.63
2022-09-05T01:45:39.240Z,11.95
2022-09-05T01:48:21.925Z,11.80
2022-09-05T01:51:29.251Z,13.70
2022-09-05T01:54:27.142Z,19.42
2022-09-05T01:57:22.817Z,12.32
2022-09-05T02:00:04.403Z,14.85
2022-09-05T02:02:50.906Z,13.77
2022-09-05T02:05:48.974Z,11.15
2022-09-05T02:08:16.001Z,10.63
2022-09-05T02:10:48.553Z,13.40
2022-09-05T02:13:36.169Z,13.90
2022-09-05T02:16:17.873Z,12.80
2022-09-05T02:19:09.225Z,11.88
2022-09-05T02:21:56.153Z,12.63
2022-09-05T02:24:33.118Z,12.63
2022-09-05T02:27:31.772Z,12.77
2022-09-05T02:30:13.401Z,15.32
2022-09-05T02:32:54.339Z,15.15
2022-09-05T02:35:59.818Z,13.88
2022-09-05T02:40:42.775Z,13.43
2022-09-05T02:45:06.890Z,16.00
2022-09-05T02:45:24.229Z,12.43
2022-09-05T02:48:14.744Z,13.65
2022-09-05T02:54:41.540Z,11.80
2022-09-05T02:57:41.150Z,15.23
2022-09-05T02:58:05.497Z,12.95
2022-09-05T02:59:36.326Z,12.38
2022-09-05T03:02:26.368Z,14.32
2022-09-05T03:05:21.928Z,16.15
2022-09-05T03:08:03.803Z,17.45
2022-09-05T03:10:54.214Z,19.00
2022-09-05T03:13:53.847Z,15.90
2022-09-05T03:16:47.116Z,16.48
2022-09-05T03:19:37.750Z,14.80
2022-09-05T03:22:36.874Z,15.27
2022-09-05T03:25:22.642Z,13.18
2022-09-05T03:28:13.575Z,15.27
2022-09-05T03:31:23.458Z,15.15
2022-09-05T03:33:58.855Z,14.95
2022-09-05T03:36:27.977Z,14.48
2022-09-05T03:39:14.732Z,18.52
2022-09-05T03:41:41.168Z,19.00
2022-09-05T03:44:10.029Z,14.95
2022-09-05T03:47:17.935Z,15.18
2022-09-05T03:54:00.641Z,15.10
2022-09-05T03:57:15.450Z,16.65
2022-09-05T03:57:16.380Z,16.70
2022-09-05T03:59:09.111Z,17.42
2022-09-05T04:07:03.597Z,16.92
2022-09-05T04:08:10.455Z,21.38
2022-09-05T04:08:28.208Z,19.45
2022-09-05T04:10:31.708Z,16.63
2022-09-05T04:13:08.817Z,22.25
2022-09-05T04:15:42.077Z,18.48
2022-09-05T04:18:33.423Z,18.33
2022-09-05T04:21:09.229Z,19.45
2022-09-05T04:24:07.081Z,18.50
2022-09-05T04:27:11.387Z,22.10
2022-09-05T04:30:38.224Z,18.02
2022-09-05T04:33:17.753Z,22.90
2022-09-05T04:36:10.430Z,18.13
2022-09-05T04:38:45.197Z,18.15
2022-09-05T04:41:39.492Z,18.65
2022-09-05T04:44:33.025Z,17.95
2022-09-05T04:47:05.467Z,20.08
2022-09-05T04:49:37.820Z,20.58
2022-09-05T04:52:14.811Z,23.58
2022-09-05T04:55:10.590Z,19.60
2022-09-05T04:57:50.577Z,18.30
2022-09-05T05:06:04.551Z,23.13
2022-09-05T05:06:09.938Z,25.27
2022-09-05T05:06:47.829Z,20.60
2022-09-05T05:09:34.930Z,24.15
2022-09-05T05:17:53.919Z,26.23
2022-09-05T05:18:10.724Z,27.02
2022-09-05T05:18:40.966Z,23.00
2022-09-05T05:21:07.847Z,22.70
2022-09-05T05:23:34.405Z,23.33
2022-09-05T05:26:04.710Z,23.70
2022-09-05T05:28:53.173Z,29.23
2022-09-05T05:31:28.517Z,25.15
2022-09-05T05:34:00.114Z,25.73
2022-09-05T05:36:40.553Z,25.17
2022-09-05T05:39:16.182Z,24.95
2022-09-05T05:41:51.161Z,23.23
2022-09-05T05:44:22.769Z,31.58
2022-09-05T05:47:00.705Z,32.53
2022-09-05T05:49:49.370Z,29.38
2022-09-05T05:52:38.273Z,25.67
2022-09-05T05:55:52.771Z,28.40
2022-09-05T05:58:50.540Z,22.50
2022-09-05T06:01:48.019Z,23.88
2022-09-05T06:05:06.052Z,21.48
2022-09-05T06:08:57.292Z,22.00
2022-09-05T06:14:49.418Z,20.58
2022-09-05T06:15:05.412Z,22.52
2022-09-05T06:17:13.137Z,24.95
2022-09-05T06:22:04.172Z,19.25
2022-09-05T06:23:17.426Z,18.02
2022-09-05T06:26:05.915Z,22.13
2022-09-05T06:28:38.776Z,21.27
2022-09-05T06:31:34.949Z,24.02
2022-09-05T06:34:36.113Z,20.17
2022-09-05T06:37:30.456Z,22.75
2022-09-05T06:40:32.008Z,18.40
2022-09-05T06:43:31.768Z,17.40
2022-09-05T06:46:24.053Z,19.33
2022-09-05T06:49:46.135Z,22.88
2022-09-05T06:52:58.035Z,16.85
2022-09-05T06:55:43.212Z,18.48
2022-09-05T06:58:45.025Z,19.95
2022-09-05T07:01:14.202Z,14.07
2022-09-05T07:04:33.315Z,18.65
2022-09-05T07:07:01.566Z,15.13
2022-09-05T07:09:37.943Z,13.98
2022-09-05T07:12:17.888Z,13.77
2022-09-05T07:15:08.619Z,17.23
2022-09-05T07:18:17.052Z,14.63
2022-09-05T07:21:17.438Z,23.02
2022-09-05T07:24:08.866Z,15.90
2022-09-05T07:26:54.245Z,13.35
2022-09-05T07:29:33.823Z,14.45
2022-09-05T07:32:03.221Z,14.93
2022-09-05T07:34:32.213Z,16.42
2022-09-05T07:37:15.285Z,12.88
2022-09-05T07:39:58.386Z,15.60
2022-09-05T07:42:53.691Z,14.30
2022-09-05T07:45:41.879Z,10.82
2022-09-05T07:48:34.622Z,10.68
2022-09-05T07:56:49.703Z,9.55
2022-09-05T07:56:56.435Z,12.85
2022-09-05T07:59:41.350Z,9.75
2022-09-05T08:02:11.444Z,13.02
2022-09-05T08:04:41.819Z,10.90
2022-09-05T08:07:49.086Z,12.77
2022-09-05T08:10:10.471Z,12.05
2022-09-05T08:13:24.692Z,11.23
2022-09-05T08:16:00.689Z,11.43
2022-09-05T08:18:50.335Z,8.20
2022-09-05T08:21:39.268Z,10.05
2022-09-05T08:24:25.213Z,8.68
2022-09-05T08:27:04.235Z,11.73
2022-09-05T08:29:39.071Z,7.75
2022-09-05T08:32:13.577Z,11.82
2022-09-05T08:34:44.134Z,9.45
2022-09-05T08:37:21.171Z,11.55
2022-09-05T08:40:10.595Z,9.07
2022-09-05T08:44:13.567Z,9.77
2022-09-05T08:46:39.569Z,11.52
2022-09-05T08:49:37.004Z,10.40
2022-09-05T08:52:26.548Z,5.72
2022-09-05T08:55:51.956Z,8.70
2022-09-05T08:59:28.271Z,9.93
2022-09-05T09:02:47.284Z,7.78
2022-09-05T09:05:58.113Z,7.80
2022-09-05T09:09:13.692Z,13.05
2022-09-05T09:11:55.213Z,10.23
2022-09-05T09:14:51.207Z,12.75
2022-09-05T09:17:46.474Z,6.85
2022-09-05T09:20:45.021Z,4.97
2022-09-05T09:23:41.094Z,5.10
2022-09-05T09:26:29.146Z,3.25
2022-09-05T09:29:12.455Z,7.00
2022-09-05T09:31:50.814Z,9.07
2022-09-05T09:34:26.342Z,7.40
2022-09-05T09:37:25.464Z,8.23
2022-09-05T09:40:26.512Z,12.02
2022-09-05T09:43:18.095Z,7.45
2022-09-05T09:45:52.159Z,6.63
2022-09-05T09:48:36.948Z,9.20
2022-09-05T09:51:26.992Z,7.05
2022-09-05T09:54:12.321Z,4.43
2022-09-05T09:57:00.552Z,2.85
2022-09-05T09:59:54.511Z,4.75
2022-09-05T10:04:54.275Z,7.95
2022-09-05T10:10:45.545Z,3.10
2022-09-05T10:10:50.598Z,3.08
2022-09-05T10:12:10.200Z,5.68
2022-09-05T10:15:01.905Z,3.95
2022-09-05T10:18:07.569Z,4.70
2022-09-05T10:21:16.398Z,5.88
2022-09-05T10:23:54.235Z,4.03
2022-09-05T10:26:51.701Z,7.00
2022-09-05T10:29:43.657Z,5.88
2022-09-05T10:35:11.262Z,6.63
2022-09-05T10:35:22.338Z,2.35
2022-09-05T10:38:10.359Z,4.18
2022-09-05T10:41:08.139Z,5.18
2022-09-05T10:43:30.028Z,4.85
2022-09-05T10:45:56.674Z,2.75
2022-09-05T10:48:40.621Z,3.13
2022-09-05T10:51:29.741Z,6.18
2022-09-05T10:54:11.597Z,3.35
2022-09-05T10:56:45.094Z,1.63
2022-09-05T11:02:19.024Z,1.35
2022-09-05T11:02:47.208Z,2.10
2022-09-05T11:05:28.401Z,3.03
2022-09-05T11:08:21.427Z,2.47
2022-09-05T11:11:28.429Z,4.07
2022-09-05T11:14:26.337Z,3.08
2022-09-05T11:17:04.897Z,1.83
2022-09-05T11:19:52.158Z,5.13
2022-09-05T11:22:23.907Z,5.03
2022-09-05T11:24:56.845Z,3.53
2022-09-05T11:27:40.759Z,4.80
2022-09-05T11:30:29.215Z,4.47
2022-09-05T11:39:45.821Z,2.60
2022-09-05T11:39:57.409Z,2.75
2022-09-05T11:40:09.798Z,2.67
2022-09-05T11:42:26.964Z,1.30
2022-09-05T11:45:15.372Z,1.45
2022-09-05T11:48:06.907Z,5.20
2022-09-05T11:50:42.374Z,2.15
2022-09-05T11:53:34.889Z,4.40
2022-09-05T11:56:13.815Z,2.38
2022-09-05T11:59:33.121Z,3.40
2022-09-05T12:02:30.464Z,4.60
2022-09-05T12:05:49.647Z,3.28
2022-09-05T12:08:30.767Z,1.50
2022-09-05T12:11:06.413Z,2.97
2022-09-05T12:13:56.782Z,3.45
2022-09-05T12:16:47.496Z,2.42
2022-09-05T12:19:40.288Z,1.90
2022-09-05T12:22:28.794Z,2.33
2022-09-05T12:25:25.105Z,3.30
2022-09-05T12:29:25.955Z,1.67
2022-09-05T12:32:19.522Z,4.13
2022-09-05T12:35:59.509Z,2.10
2022-09-05T12:39:33.238Z,3.35
2022-09-05T12:41:33.647Z,6.22
2022-09-05T12:44:36.414Z,4.07
2022-09-05T12:46:23.926Z,8.55
2022-09-05T12:49:06.898Z,1.55
2022-09-05T12:51:45.750Z,3.92
2022-09-05T12:54:33.566Z,3.08
2022-09-05T13:02:59.164Z,1.38
2022-09-05T13:03:02.089Z,3.88
2022-09-05T13:03:28.008Z,1.90
2022-09-05T13:05:59.183Z,3.17
2022-09-05T13:08:38.003Z,2.92
2022-09-05T13:14:58.749Z,2.00
2022-09-05T13:15:03.003Z,2.55
2022-09-05T13:16:52.820Z,3.08
2022-09-05T13:19:32.480Z,4.28
2022-09-05T13:22:02.282Z,5.45
2022-09-05T13:24:35.056Z,1.98
2022-09-05T13:27:08.672Z,2.05
2022-09-05T13:30:54.842Z,3.80
2022-09-05T13:38:03.801Z,5.40
2022-09-05T13:38:07.593Z,2.10
2022-09-05T13:38:47.546Z,2.80
2022-09-05T13:41:34.559Z,1.88
2022-09-05T13:44:26.635Z,3.97
2022-09-05T13:47:29.328Z,3.85
2022-09-05T13:50:20.286Z,2.03
2022-09-05T13:53:14.824Z,1.67
2022-09-05T13:55:54.075Z,3.20
2022-09-05T13:58:36.247Z,2.90
2022-09-05T14:02:25.410Z,3.55
2022-09-05T14:07:51.409Z,1.90
2022-09-05T14:10:39.374Z,4.57
2022-09-05T14:13:50.523Z,4.22
2022-09-05T14:16:47.899Z,4.65
2022-09-05T14:19:43.428Z,2.65
2022-09-05T14:22:22.420Z,1.90
2022-09-05T14:24:52.942Z,2.75
2022-09-05T14:27:30.373Z,3.83
2022-09-05T14:30:09.364Z,5.78
2022-09-05T14:37:46.277Z,1.70
2022-09-05T14:38:00.544Z,4.53
2022-09-05T14:39:15.541Z,3.40
2022-09-05T14:42:07.456Z,4.70
2022-09-05T14:44:58.417Z,2.50
2022-09-05T14:47:36.368Z,2.22
2022-09-05T14:50:17.675Z,3.50
2022-09-05T14:56:32.004Z,3.97
2022-09-05T15:02:39.426Z,2.85
2022-09-05T15:02:51.879Z,4.32
2022-09-05T15:04:45.350Z,4.10
2022-09-05T15:07:16.313Z,3.35
2022-09-05T15:12:15.503Z,3.53
2022-09-05T15:12:39.625Z,3.20
2022-09-05T15:15:19.128Z,5.53
2022-09-05T15:17:50.414Z,3.15
2022-09-05T15:20:42.482Z,2.53
2022-09-05T15:23:16.859Z,5.80
2022-09-05T15:25:51.038Z,2.92
2022-09-05T15:28:31.576Z,8.43
2022-09-05T15:31:02.221Z,3.45
2022-09-05T15:33:31.270Z,3.58
2022-09-05T15:35:59.625Z,4.38
2022-09-05T15:38:54.318Z,1.85
2022-09-05T15:41:29.786Z,2.83
2022-09-05T15:44:12.968Z,3.70
2022-09-05T15:46:43.385Z,4.45
2022-09-05T15:49:32.100Z,6.90
2022-09-05T15:52:06.587Z,4.50
2022-09-05T15:54:40.569Z,4.95
2022-09-05T15:57:17.464Z,10.18
2022-09-05T15:59:48.982Z,5.03
2022-09-05T16:02:25.817Z,6.25
2022-09-05T16:10:27.441Z,4.72
2022-09-05T16:10:45.379Z,5.25
2022-09-05T16:11:19.750Z,2.20
2022-09-05T16:13:52.151Z,6.90
2022-09-05T16:23:18.845Z,2.90
2022-09-05T16:23:26.204Z,5.00
2022-09-05T16:23:38.038Z,4.32
2022-09-05T16:25:28.285Z,8.98
2022-09-05T16:28:04.165Z,4.28
2022-09-05T16:30:36.212Z,3.67
2022-09-05T16:33:28.699Z,4.63
2022-09-05T16:35:58.390Z,7.22
2022-09-05T16:38:49.708Z,3.70
2022-09-05T16:41:40.335Z,6.20
2022-09-05T16:44:30.023Z,5.20
2022-09-05T16:47:27.236Z,7.95
2022-09-05T16:50:33.595Z,3.08
2022-09-05T16:53:30.836Z,10.73
2022-09-05T16:56:04.132Z,18.40
2022-09-05T16:58:33.334Z,9.20
2022-09-05T17:01:22.015Z,6.70
2022-09-05T17:03:48.594Z,7.72
2022-09-05T17:06:26.346Z,9.30
2022-09-05T17:09:12.454Z,6.05
2022-09-05T17:12:00.693Z,6.78
2022-09-05T17:14:39.265Z,8.13
2022-09-05T17:18:20.609Z,12.57
2022-09-05T17:20:14.508Z,8.35
2022-09-05T17:27:51.172Z,10.63
2022-09-05T17:29:27.404Z,15.38
2022-09-05T17:29:32.754Z,9.43
2022-09-05T17:31:56.953Z,6.28
2022-09-05T17:34:49.757Z,7.80
2022-09-05T17:37:44.049Z,7.40
2022-09-05T17:40:36.627Z,14.15
2022-09-05T17:43:29.968Z,10.90
2022-09-05T17:46:21.433Z,10.05
2022-09-05T17:49:16.227Z,15.68
2022-09-05T17:51:34.609Z,6.38
2022-09-05T17:54:08.078Z,7.97
2022-09-05T17:56:39.968Z,10.07
2022-09-05T17:59:22.161Z,11.57
2022-09-05T18:02:03.877Z,12.75
2022-09-05T18:04:51.261Z,8.35
2022-09-05T18:07:26.726Z,10.25
2022-09-05T18:10:14.838Z,10.32
2022-09-05T18:13:13.054Z,7.20
2022-09-05T18:15:34.899Z,8.18
2022-09-05T18:18:24.274Z,5.40
2022-09-05T18:21:21.666Z,6.50
2022-09-05T18:24:04.508Z,6.22
2022-09-05T18:26:44.662Z,9.93
2022-09-05T18:29:58.668Z,8.45
2022-09-05T18:32:46.543Z,5.85
2022-09-05T18:35:32.429Z,5.95
2022-09-05T18:38:04.230Z,13.35
2022-09-05T18:40:59.606Z,7.30
2022-09-05T18:43:28.852Z,10.55
2022-09-05T18:46:15.756Z,6.78
2022-09-05T18:50:00.318Z,9.82
2022-09-05T18:52:17.188Z,8.63
2022-09-05T18:55:26.694Z,4.68
2022-09-05T18:57:58.967Z,8.50
2022-09-05T19:00:46.888Z,6.95
2022-09-05T19:03:31.633Z,7.00
2022-09-05T19:06:34.550Z,10.10
2022-09-05T19:08:56.133Z,7.97
2022-09-05T19:11:33.448Z,5.25
2022-09-05T19:14:26.320Z,8.45
2022-09-05T19:17:10.014Z,8.55
2022-09-05T19:20:30.687Z,4.30
2022-09-05T19:23:13.475Z,5.65
2022-09-05T19:25:44.946Z,2.80
2022-09-05T19:35:10.115Z,3.22
2022-09-05T19:37:03.122Z,2.88
2022-09-05T19:37:13.890Z,4.13
2022-09-05T19:45:48.972Z,2.67
2022-09-05T19:47:35.372Z,2.83
2022-09-05T19:47:41.361Z,2.92
2022-09-05T19:48:21.236Z,4.30
2022-09-05T19:50:53.474Z,2.35
2022-09-05T19:53:21.056Z,2.30
2022-09-05T19:55:48.512Z,2.30
2022-09-05T19:58:21.661Z,5.50
2022-09-05T20:01:00.889Z,3.05
2022-09-05T20:03:28.117Z,3.33
2022-09-05T20:05:58.368Z,7.47
2022-09-05T20:08:35.216Z,4.60
2022-09-05T20:11:04.658Z,11.38
2022-09-05T20:13:33.762Z,5.28
2022-09-05T20:16:10.694Z,2.10
2022-09-05T20:18:40.331Z,13.32
2022-09-05T20:21:15.986Z,2.03
2022-09-05T20:23:48.304Z,3.40
2022-09-05T20:26:18.286Z,2.90
2022-09-05T20:28:52.697Z,5.95
2022-09-05T20:31:27.266Z,2.65
2022-09-05T20:35:15.986Z,2.00
2022-09-05T20:43:08.155Z,4.40
2022-09-05T20:43:20.806Z,3.80
2022-09-05T20:43:31.715Z,7.65
2022-09-05T20:45:43.505Z,5.63
2022-09-05T20:54:06.392Z,3.03
2022-09-05T20:54:16.039Z,5.32
2022-09-05T20:54:20.541Z,3.13
2022-09-05T20:56:36.517Z,5.22
2022-09-05T20:59:03.181Z,3.42
2022-09-05T21:01:33.823Z,12.02
2022-09-05T21:04:03.188Z,5.15
2022-09-05T21:06:37.126Z,11.20
2022-09-05T21:09:25.254Z,2.67
2022-09-05T21:11:54.959Z,10.30
2022-09-05T21:14:26.497Z,6.93
2022-09-05T21:17:00.565Z,4.47
2022-09-05T21:19:35.205Z,2.75
2022-09-05T21:22:22.325Z,5.55
2022-09-05T21:25:08.299Z,4.47
2022-09-05T21:27:35.077Z,4.45
2022-09-05T21:30:22.014Z,6.15
2022-09-05T21:32:53.569Z,4.25
2022-09-05T21:35:35.197Z,3.60
2022-09-05T21:38:02.327Z,4.35
2022-09-05T21:40:28.930Z,5.25
2022-09-05T21:47:34.888Z,5.72
2022-09-05T21:47:43.440Z,6.25
2022-09-05T21:48:34.828Z,7.55
2022-09-05T21:51:10.505Z,7.20
2022-09-05T21:56:50.267Z,5.63
2022-09-05T21:59:17.319Z,5.40
2022-09-05T22:02:08.525Z,4.32
2022-09-05T22:04:41.087Z,5.30
2022-09-05T22:07:12.901Z,4.70
2022-09-05T22:09:39.502Z,7.65
2022-09-05T22:12:28.309Z,4.20
2022-09-05T22:14:55.021Z,3.20
2022-09-05T22:17:25.346Z,4.07
2022-09-05T22:19:52.610Z,5.55
2022-09-05T22:22:20.420Z,5.97
2022-09-05T22:24:52.272Z,5.90
2022-09-05T22:27:20.646Z,4.95
2022-09-05T22:29:51.738Z,6.90
2022-09-05T22:32:34.966Z,6.05
2022-09-05T22:35:27.755Z,3.63
2022-09-05T22:37:59.415Z,4.43
2022-09-05T22:40:30.827Z,5.30
2022-09-05T22:43:05.762Z,7.05
2022-09-05T22:45:34.717Z,3.85
2022-09-05T22:48:11.310Z,7.28
2022-09-05T22:50:38.714Z,6.70
2022-09-05T22:53:07.332Z,5.93
2022-09-05T22:55:34.952Z,3.13
2022-09-05T22:58:05.321Z,6.07
2022-09-05T23:00:34.784Z,3.55
2022-09-05T23:03:04.049Z,3.08
2022-09-05T23:05:32.742Z,3.50
2022-09-05T23:08:00.803Z,3.00
2022-09-05T23:10:30.574Z,4.65
2022-09-05T23:13:00.346Z,4.50
2022-09-05T23:15:26.992Z,2.83
2022-09-05T23:17:59.023Z,7.25
2022-09-05T23:20:28.420Z,5.97
2022-09-05T23:22:55.518Z,5.32
2022-09-05T23:25:23.101Z,10.05
2022-09-05T23:27:50.472Z,4.50
2022-09-05T23:30:17.882Z,6.30
2022-09-05T23:32:48.987Z,5.78
2022-09-05T23:35:16.516Z,7.65
2022-09-05T23:37:47.172Z,5.97
2022-09-05T23:40:21.830Z,4.85
2022-09-05T23:42:52.081Z,5.80
2022-09-05T23:45:19.328Z,3.92
2022-09-05T23:47:46.139Z,8.60
2022-09-05T23:50:13.561Z,5.97
2022-09-05T23:52:41.176Z,7.43
2022-09-05T23:55:11.039Z,7.10
2022-09-05T23:57:37.716Z,4.25
